Terminal Aerodrome Forecast
Issued by NWS Mt. Holly, NJ

Home | Current Version | Previous Version | Text Only | Print | Product List | Glossary On
Versions: 1 2 3 4 5 6 7 8 9 10 11 12 13 14 15 16 17 18
000
FTUS41 KPHI 161700
TAFILG
TAF
KILG 161725Z 1618/1718 35009KT P6SM BKN060
      TEMPO 1619/1623 SCT060
     FM162300 33005KT P6SM SKC
     FM171300 03006KT P6SM SKC=

USA.gov is the U.S. government's official web portal to all federal, state and local government web resources and services.